createdAt,value
2022-12-03T00:00:34.055Z,2.10
2022-12-03T00:03:29.236Z,1.38
2022-12-03T00:06:22.017Z,1.30
2022-12-03T00:09:14.988Z,1.85
2022-12-03T00:12:08.252Z,1.48
2022-12-03T00:15:01.373Z,1.55
2022-12-03T00:17:54.270Z,2.33
2022-12-03T00:20:48.645Z,2.55
2022-12-03T00:23:42.647Z,1.85
2022-12-03T00:26:36.011Z,1.45
2022-12-03T00:29:29.193Z,1.75
2022-12-03T00:32:22.562Z,1.88
2022-12-03T00:35:16.286Z,1.60
2022-12-03T00:38:10.386Z,2.17
2022-12-03T00:41:03.148Z,2.40
2022-12-03T00:43:57.633Z,1.85
2022-12-03T00:46:51.612Z,2.33
2022-12-03T00:49:44.926Z,1.92
2022-12-03T00:52:38.331Z,1.98
2022-12-03T00:55:32.571Z,1.65
2022-12-03T00:58:26.208Z,1.40
2022-12-03T01:01:18.985Z,1.60
2022-12-03T01:04:11.891Z,1.58
2022-12-03T01:07:05.286Z,1.60
2022-12-03T01:09:58.486Z,1.33
2022-12-03T01:12:52.764Z,2.65
2022-12-03T01:15:46.297Z,1.92
2022-12-03T01:18:39.406Z,2.50
2022-12-03T01:21:32.217Z,2.47
2022-12-03T01:24:25.418Z,1.63
2022-12-03T01:27:18.420Z,1.98
2022-12-03T01:30:14.745Z,1.55
2022-12-03T01:33:07.332Z,2.17
2022-12-03T01:36:00.227Z,2.22
2022-12-03T01:38:52.941Z,1.25
2022-12-03T01:41:47.054Z,2.40
2022-12-03T01:44:41.969Z,2.13
2022-12-03T01:47:38.012Z,1.70
2022-12-03T01:50:34.146Z,1.52
2022-12-03T01:53:27.274Z,1.75
2022-12-03T01:56:20.383Z,2.00
2022-12-03T01:59:16.610Z,1.85
2022-12-03T02:02:14.210Z,2.25
2022-12-03T02:05:17.988Z,2.05
2022-12-03T02:08:33.620Z,1.83
2022-12-03T02:11:31.895Z,2.03
2022-12-03T02:14:25.356Z,1.60
2022-12-03T02:17:18.523Z,2.08
2022-12-03T02:20:14.490Z,1.98
2022-12-03T02:23:13.318Z,1.55
2022-12-03T02:26:07.486Z,1.60
2022-12-03T02:29:00.484Z,1.33
2022-12-03T02:31:53.444Z,1.63
2022-12-03T02:34:48.260Z,1.95
2022-12-03T02:37:42.165Z,1.70
2022-12-03T02:40:35.401Z,2.13
2022-12-03T02:43:29.908Z,1.70
2022-12-03T02:46:23.348Z,1.50
2022-12-03T02:49:16.682Z,1.45
2022-12-03T02:52:10.375Z,2.13
2022-12-03T02:55:04.490Z,2.55
2022-12-03T02:57:57.888Z,1.70
2022-12-03T03:00:54.121Z,2.22
2022-12-03T03:03:48.959Z,2.17
2022-12-03T03:06:42.411Z,2.00
2022-12-03T03:09:36.375Z,2.50
2022-12-03T03:12:29.236Z,1.52
2022-12-03T03:15:22.821Z,2.58
2022-12-03T03:18:18.403Z,1.70
2022-12-03T03:21:10.972Z,1.67
2022-12-03T03:24:04.590Z,2.05
2022-12-03T03:26:58.279Z,1.75
2022-12-03T03:29:51.966Z,2.10
2022-12-03T03:32:45.287Z,1.75
2022-12-03T03:35:40.482Z,1.67
2022-12-03T03:38:33.620Z,1.88
2022-12-03T03:41:28.771Z,1.98
2022-12-03T03:44:22.370Z,1.17
2022-12-03T03:47:16.000Z,2.33
2022-12-03T03:50:12.947Z,1.58
2022-12-03T03:53:07.983Z,1.83
2022-12-03T03:56:01.554Z,2.33
2022-12-03T03:58:54.287Z,1.88
2022-12-03T04:01:48.006Z,1.63
2022-12-03T04:04:41.342Z,1.95
2022-12-03T04:07:34.393Z,1.25
2022-12-03T04:10:46.384Z,1.77
2022-12-03T04:13:39.539Z,1.42
2022-12-03T04:16:32.561Z,2.38
2022-12-03T04:19:25.582Z,1.95
2022-12-03T04:22:35.581Z,1.80
2022-12-03T04:25:47.092Z,1.58
2022-12-03T04:28:51.576Z,2.25
2022-12-03T04:32:10.614Z,1.38
2022-12-03T04:35:20.676Z,1.73
2022-12-03T04:38:16.544Z,1.33
2022-12-03T04:41:10.626Z,2.40
2022-12-03T04:44:29.420Z,2.15
2022-12-03T04:47:23.523Z,1.55
2022-12-03T04:50:16.477Z,1.65
2022-12-03T04:53:09.522Z,1.42
2022-12-03T04:56:02.163Z,1.60
2022-12-03T04:58:56.633Z,2.17
2022-12-03T05:01:49.226Z,1.85
2022-12-03T05:04:42.048Z,1.45
2022-12-03T05:07:35.661Z,1.48
2022-12-03T05:10:29.188Z,2.70
2022-12-03T05:13:22.153Z,1.70
2022-12-03T05:16:16.709Z,1.52
2022-12-03T05:19:10.425Z,2.05
2022-12-03T05:22:02.110Z,1.90
2022-12-03T05:24:55.866Z,1.15
2022-12-03T05:27:49.430Z,1.23
2022-12-03T05:30:43.197Z,1.90
2022-12-03T05:33:42.559Z,1.88
2022-12-03T05:36:37.172Z,1.40
2022-12-03T05:39:30.285Z,1.90
2022-12-03T05:42:40.904Z,1.63
2022-12-03T05:45:36.426Z,1.70
2022-12-03T05:48:29.630Z,1.17
2022-12-03T05:51:23.784Z,2.22
2022-12-03T05:54:17.523Z,1.02
2022-12-03T05:57:10.349Z,1.52
2022-12-03T06:00:03.332Z,1.27
2022-12-03T06:02:56.613Z,2.22
2022-12-03T06:05:50.991Z,1.20
2022-12-03T06:08:45.682Z,1.25
2022-12-03T06:11:39.783Z,1.48
2022-12-03T06:14:34.643Z,2.33
2022-12-03T06:17:27.462Z,1.92
2022-12-03T06:20:21.627Z,1.50
2022-12-03T06:23:14.652Z,2.40
2022-12-03T06:26:08.741Z,2.13
2022-12-03T06:29:02.851Z,2.20
2022-12-03T06:31:56.605Z,1.48
2022-12-03T06:34:49.706Z,1.27
2022-12-03T06:37:42.491Z,1.95
2022-12-03T06:40:35.591Z,1.67
2022-12-03T06:43:30.830Z,2.00
2022-12-03T06:46:24.369Z,1.70
2022-12-03T06:49:17.435Z,1.58
2022-12-03T06:52:10.342Z,1.38
2022-12-03T06:55:03.779Z,1.40
2022-12-03T06:57:57.717Z,1.92
2022-12-03T07:00:51.897Z,1.33
2022-12-03T07:03:45.530Z,1.75
2022-12-03T07:06:38.446Z,2.10
2022-12-03T07:09:31.514Z,1.25
2022-12-03T07:12:24.457Z,1.10
2022-12-03T07:15:17.863Z,1.67
2022-12-03T07:18:12.619Z,1.23
2022-12-03T07:21:06.049Z,2.00
2022-12-03T07:23:59.473Z,1.90
2022-12-03T07:26:52.753Z,1.45
2022-12-03T07:29:45.451Z,1.75
2022-12-03T07:32:38.384Z,1.40
2022-12-03T07:35:32.791Z,1.60
2022-12-03T07:38:26.427Z,1.92
2022-12-03T07:41:19.490Z,1.48
2022-12-03T07:44:14.706Z,1.15
2022-12-03T07:47:08.450Z,1.50
2022-12-03T07:50:01.411Z,1.38
2022-12-03T07:52:55.743Z,1.92
2022-12-03T07:55:48.609Z,1.08
2022-12-03T07:58:41.445Z,1.75
2022-12-03T08:01:34.943Z,1.88
2022-12-03T08:04:28.137Z,1.48
2022-12-03T08:07:21.716Z,1.75
2022-12-03T08:10:15.810Z,1.45
2022-12-03T08:13:14.572Z,1.90
2022-12-03T08:16:16.707Z,2.05
2022-12-03T08:19:11.908Z,1.75
2022-12-03T08:22:12.672Z,1.17
2022-12-03T08:25:08.314Z,1.05
2022-12-03T08:28:08.938Z,2.20
2022-12-03T08:31:08.343Z,1.58
2022-12-03T08:34:18.719Z,1.45
2022-12-03T08:37:17.412Z,1.10
2022-12-03T08:40:28.866Z,2.15
2022-12-03T08:43:26.060Z,1.27
2022-12-03T08:46:20.431Z,1.42
2022-12-03T08:49:14.670Z,1.25
2022-12-03T08:52:15.667Z,1.10
2022-12-03T08:55:33.513Z,1.40
2022-12-03T08:58:34.246Z,2.05
2022-12-03T09:01:38.565Z,1.90
2022-12-03T09:04:36.982Z,1.67
2022-12-03T09:07:30.615Z,1.38
2022-12-03T09:10:23.467Z,1.38
2022-12-03T09:13:16.359Z,1.60
2022-12-03T09:16:11.061Z,1.45
2022-12-03T09:19:04.663Z,1.55
2022-12-03T09:21:57.980Z,1.85
2022-12-03T09:24:52.123Z,1.73
2022-12-03T09:27:45.206Z,1.67
2022-12-03T09:30:38.847Z,1.35
2022-12-03T09:33:33.282Z,1.75
2022-12-03T09:36:26.387Z,2.17
2022-12-03T09:39:19.679Z,3.03
2022-12-03T09:42:13.017Z,3.33
2022-12-03T09:45:12.164Z,1.95
2022-12-03T09:48:06.569Z,1.85
2022-12-03T09:51:00.998Z,1.40
2022-12-03T09:53:54.768Z,1.80
2022-12-03T09:56:47.558Z,2.42
2022-12-03T09:59:40.951Z,2.30
2022-12-03T10:02:34.426Z,1.80
2022-12-03T10:05:29.625Z,2.53
2022-12-03T10:08:29.388Z,1.70
2022-12-03T10:11:27.107Z,2.47
2022-12-03T10:14:21.484Z,1.73
2022-12-03T10:17:14.574Z,2.33
2022-12-03T10:20:08.748Z,2.22
2022-12-03T10:23:01.378Z,1.98
2022-12-03T10:25:58.001Z,1.73
2022-12-03T10:28:53.139Z,2.28
2022-12-03T10:31:47.015Z,1.95
2022-12-03T10:34:43.023Z,1.88
2022-12-03T10:37:36.536Z,1.63
2022-12-03T10:40:31.479Z,2.08
2022-12-03T10:43:26.659Z,1.45
2022-12-03T10:46:21.397Z,1.48
2022-12-03T10:49:18.132Z,1.88
2022-12-03T10:52:26.002Z,2.80
2022-12-03T10:55:19.718Z,2.30
2022-12-03T10:58:20.124Z,2.67
2022-12-03T11:01:18.335Z,2.25
2022-12-03T11:04:22.149Z,2.53
2022-12-03T11:07:17.057Z,2.80
2022-12-03T11:10:15.368Z,1.70
2022-12-03T11:13:44.102Z,2.25
2022-12-03T11:17:08.962Z,2.03
2022-12-03T11:20:03.828Z,2.03
2022-12-03T11:22:57.904Z,2.03
2022-12-03T11:25:51.339Z,2.45
2022-12-03T11:28:55.572Z,2.92
2022-12-03T11:31:49.323Z,2.15
2022-12-03T11:34:43.058Z,2.22
2022-12-03T11:37:37.758Z,1.83
2022-12-03T11:40:34.759Z,3.17
2022-12-03T11:44:02.094Z,2.17
2022-12-03T11:46:56.747Z,3.22
2022-12-03T11:49:50.341Z,2.50
2022-12-03T11:52:47.510Z,2.30
2022-12-03T11:55:44.170Z,2.65
2022-12-03T11:58:39.738Z,2.40
2022-12-03T12:01:39.131Z,2.60
2022-12-03T12:04:35.510Z,2.28
2022-12-03T12:07:35.615Z,2.65
2022-12-03T12:10:47.602Z,2.92
2022-12-03T12:13:56.550Z,2.92
2022-12-03T12:16:51.473Z,2.25
2022-12-03T12:19:47.328Z,1.90
2022-12-03T12:22:43.061Z,2.40
2022-12-03T12:25:41.560Z,3.00
2022-12-03T12:28:35.973Z,2.90
2022-12-03T12:31:28.747Z,2.85
2022-12-03T12:34:21.964Z,2.65
2022-12-03T12:37:19.997Z,3.30
2022-12-03T12:40:16.252Z,2.28
2022-12-03T12:43:24.118Z,3.25
2022-12-03T12:46:46.615Z,2.38
2022-12-03T12:49:32.765Z,2.90
2022-12-03T12:52:26.423Z,2.53
2022-12-03T12:55:20.682Z,3.30
2022-12-03T12:58:18.512Z,2.67
2022-12-03T13:01:17.901Z,2.67
2022-12-03T13:04:14.134Z,2.53
2022-12-03T13:07:09.596Z,2.33
2022-12-03T13:10:35.217Z,2.08
2022-12-03T13:13:41.626Z,2.63
2022-12-03T13:16:36.807Z,2.70
2022-12-03T13:19:43.582Z,2.97
2022-12-03T13:22:40.656Z,3.40
2022-12-03T13:26:00.233Z,2.58
2022-12-03T13:28:52.305Z,3.25
2022-12-03T13:31:52.717Z,3.53
2022-12-03T13:34:48.074Z,4.25
2022-12-03T13:37:42.015Z,2.80
2022-12-03T13:40:35.802Z,3.45
2022-12-03T13:43:32.923Z,3.03
2022-12-03T13:46:25.768Z,3.10
2022-12-03T13:49:22.046Z,3.25
2022-12-03T13:52:21.727Z,2.67
2022-12-03T13:55:28.152Z,2.80
2022-12-03T13:58:21.890Z,2.95
2022-12-03T14:01:14.714Z,3.33
2022-12-03T14:04:22.496Z,3.78
2022-12-03T14:07:17.415Z,3.45
2022-12-03T14:10:12.857Z,2.72
2022-12-03T14:13:05.516Z,2.47
2022-12-03T14:15:58.944Z,2.53
2022-12-03T14:18:51.754Z,2.65
2022-12-03T14:21:44.741Z,2.75
2022-12-03T14:24:39.812Z,2.35
2022-12-03T14:27:33.113Z,4.15
2022-12-03T14:30:26.738Z,2.97
2022-12-03T14:33:20.062Z,2.75
2022-12-03T14:36:12.740Z,3.00
2022-12-03T14:39:05.991Z,2.78
2022-12-03T14:42:14.967Z,1.90
2022-12-03T14:45:09.472Z,2.53
2022-12-03T14:48:02.621Z,2.78
2022-12-03T14:50:55.999Z,2.90
2022-12-03T14:53:48.863Z,2.67
2022-12-03T14:56:41.606Z,2.85
2022-12-03T14:59:36.097Z,3.17
2022-12-03T15:02:30.371Z,2.83
2022-12-03T15:05:28.597Z,1.73
2022-12-03T15:08:23.413Z,2.58
2022-12-03T15:11:16.575Z,2.65
2022-12-03T15:14:10.194Z,3.25
2022-12-03T15:17:05.060Z,3.20
2022-12-03T15:19:58.011Z,2.53
2022-12-03T15:22:50.901Z,2.72
2022-12-03T15:25:44.310Z,1.63
2022-12-03T15:28:37.817Z,2.78
2022-12-03T15:31:31.269Z,2.78
2022-12-03T15:34:25.935Z,2.92
2022-12-03T15:37:18.967Z,2.75
2022-12-03T15:40:14.857Z,3.10
2022-12-03T15:43:08.445Z,2.00
2022-12-03T15:46:01.866Z,3.28
2022-12-03T15:48:55.268Z,2.78
2022-12-03T15:51:50.247Z,3.08
2022-12-03T15:54:44.160Z,6.93
2022-12-03T15:57:37.912Z,3.17
2022-12-03T16:00:30.913Z,2.83
2022-12-03T16:03:23.862Z,3.55
2022-12-03T16:06:18.198Z,3.72
2022-12-03T16:09:12.789Z,3.58
2022-12-03T16:12:06.029Z,2.22
2022-12-03T16:14:58.823Z,2.90
2022-12-03T16:17:51.834Z,3.15
2022-12-03T16:20:45.045Z,2.35
2022-12-03T16:23:37.991Z,2.25
2022-12-03T16:26:32.231Z,2.60
2022-12-03T16:29:26.090Z,2.60
2022-12-03T16:32:20.259Z,2.90
2022-12-03T16:35:13.648Z,3.17
2022-12-03T16:38:07.140Z,2.65
2022-12-03T16:41:01.161Z,3.13
2022-12-03T16:43:54.822Z,2.72
2022-12-03T16:46:47.995Z,3.00
2022-12-03T16:49:40.797Z,3.42
2022-12-03T16:52:34.090Z,2.20
2022-12-03T16:55:26.847Z,2.65
2022-12-03T16:58:21.363Z,2.85
2022-12-03T17:01:15.970Z,3.53
2022-12-03T17:04:09.416Z,4.22
2022-12-03T17:07:02.946Z,2.65
2022-12-03T17:09:56.209Z,3.00
2022-12-03T17:16:02.949Z,3.45
2022-12-03T17:18:57.205Z,3.40
2022-12-03T17:21:49.934Z,2.75
2022-12-03T17:24:43.026Z,2.72
2022-12-03T17:27:38.686Z,3.38
2022-12-03T17:30:36.910Z,2.58
2022-12-03T17:33:30.038Z,2.95
2022-12-03T17:36:24.313Z,3.58
2022-12-03T17:39:18.395Z,3.13
2022-12-03T17:42:11.683Z,3.70
2022-12-03T17:45:06.369Z,2.17
2022-12-03T17:47:59.670Z,2.28
2022-12-03T17:50:55.245Z,2.95
2022-12-03T17:53:50.571Z,2.72
2022-12-03T17:56:44.333Z,3.75
2022-12-03T17:59:37.570Z,3.72
2022-12-03T18:02:30.711Z,2.67
2022-12-03T18:05:24.174Z,2.35
2022-12-03T18:08:16.906Z,2.67
2022-12-03T18:11:11.111Z,2.20
2022-12-03T18:14:03.792Z,2.38
2022-12-03T18:16:56.996Z,14.43
2022-12-03T18:19:50.091Z,7.65
2022-12-03T18:22:42.821Z,5.45
2022-12-03T18:25:35.982Z,4.47
2022-12-03T18:28:31.184Z,6.43
2022-12-03T18:31:24.294Z,5.20
2022-12-03T18:34:17.682Z,3.33
2022-12-03T18:37:12.236Z,5.70
2022-12-03T18:40:12.764Z,4.78
2022-12-03T18:43:11.915Z,5.57
2022-12-03T18:46:31.098Z,5.90
2022-12-03T18:49:25.294Z,4.95
2022-12-03T18:52:20.746Z,5.18
2022-12-03T18:55:18.751Z,7.45
2022-12-03T18:58:12.326Z,6.10
2022-12-03T19:01:11.633Z,6.18
2022-12-03T19:04:05.193Z,4.18
2022-12-03T19:06:58.191Z,4.07
2022-12-03T19:09:50.545Z,5.50
2022-12-03T19:12:44.243Z,5.57
2022-12-03T19:15:37.962Z,2.95
2022-12-03T19:18:32.518Z,3.83
2022-12-03T19:21:29.496Z,5.05
2022-12-03T19:24:27.431Z,5.95
2022-12-03T19:27:20.995Z,4.80
2022-12-03T19:30:14.945Z,3.67
2022-12-03T19:33:08.070Z,5.45
2022-12-03T19:36:04.795Z,5.25
2022-12-03T19:39:01.442Z,4.75
2022-12-03T19:41:55.065Z,7.32
2022-12-03T19:44:48.151Z,6.30
2022-12-03T19:47:41.198Z,4.78
2022-12-03T19:50:34.185Z,5.22
2022-12-03T19:53:29.537Z,5.18
2022-12-03T19:56:23.520Z,4.00
2022-12-03T19:59:17.037Z,3.92
2022-12-03T20:02:10.994Z,4.07
2022-12-03T20:05:04.110Z,4.03
2022-12-03T20:07:57.092Z,4.55
2022-12-03T20:10:51.372Z,4.65
2022-12-03T20:13:46.042Z,3.72
2022-12-03T20:16:39.061Z,4.65
2022-12-03T20:19:31.910Z,3.60
2022-12-03T20:22:25.184Z,4.60
2022-12-03T20:25:18.086Z,4.30
2022-12-03T20:28:12.544Z,6.07
2022-12-03T20:31:09.560Z,4.60
2022-12-03T20:34:04.661Z,4.78
2022-12-03T20:36:57.987Z,6.88
2022-12-03T20:39:51.639Z,4.55
2022-12-03T20:42:48.490Z,3.97
2022-12-03T20:45:43.491Z,5.80
2022-12-03T20:48:37.473Z,3.40
2022-12-03T20:51:32.097Z,5.65
2022-12-03T20:54:25.022Z,6.95
2022-12-03T20:57:17.987Z,5.43
2022-12-03T21:00:12.077Z,3.90
2022-12-03T21:03:06.723Z,3.40
2022-12-03T21:06:01.421Z,3.78
2022-12-03T21:08:56.152Z,3.60
2022-12-03T21:11:48.850Z,4.00
2022-12-03T21:14:42.046Z,4.32
2022-12-03T21:17:35.352Z,4.68
2022-12-03T21:20:30.361Z,5.03
2022-12-03T21:23:23.079Z,4.50
2022-12-03T21:26:17.902Z,3.85
2022-12-03T21:29:11.403Z,3.88
2022-12-03T21:32:05.269Z,4.20
2022-12-03T21:34:58.112Z,4.28
2022-12-03T21:37:53.255Z,4.03
2022-12-03T21:40:46.135Z,4.15
2022-12-03T21:43:39.681Z,5.65
2022-12-03T21:47:10.361Z,7.28
2022-12-03T21:49:46.291Z,4.35
2022-12-03T21:52:38.890Z,4.38
2022-12-03T21:55:33.644Z,4.25
2022-12-03T21:58:27.398Z,5.15
2022-12-03T22:01:23.260Z,3.45
2022-12-03T22:04:16.044Z,3.60
2022-12-03T22:07:09.398Z,4.18
2022-12-03T22:10:02.395Z,4.57
2022-12-03T22:12:56.123Z,4.25
2022-12-03T22:15:49.119Z,4.13
2022-12-03T22:18:42.273Z,3.92
2022-12-03T22:21:38.306Z,3.63
2022-12-03T22:24:31.336Z,4.10
2022-12-03T22:27:23.833Z,4.25
2022-12-03T22:30:18.798Z,5.38
2022-12-03T22:33:12.094Z,4.80
2022-12-03T22:36:07.291Z,4.45
2022-12-03T22:38:59.907Z,4.03
2022-12-03T22:41:53.371Z,4.47
2022-12-03T22:44:46.363Z,3.80
2022-12-03T22:47:40.597Z,4.70
2022-12-03T22:50:34.281Z,4.10
2022-12-03T22:53:27.469Z,3.63
2022-12-03T22:56:22.260Z,4.75
2022-12-03T22:59:15.216Z,3.60
2022-12-03T23:02:08.112Z,5.07
2022-12-03T23:05:02.579Z,4.53
2022-12-03T23:07:56.395Z,3.80
2022-12-03T23:10:51.810Z,3.80
2022-12-03T23:13:45.472Z,4.53
2022-12-03T23:16:39.964Z,5.28
2022-12-03T23:19:33.416Z,3.55
2022-12-03T23:22:27.285Z,3.92
2022-12-03T23:25:20.470Z,4.60
2022-12-03T23:28:13.002Z,3.95
2022-12-03T23:31:07.289Z,4.75
2022-12-03T23:34:01.741Z,3.78
2022-12-03T23:36:55.096Z,3.92
2022-12-03T23:39:50.471Z,6.85
2022-12-03T23:42:42.923Z,6.60
2022-12-03T23:45:36.563Z,4.38
2022-12-03T23:48:30.005Z,4.70
2022-12-03T23:51:25.068Z,4.68
2022-12-03T23:54:18.369Z,7.65
2022-12-03T23:57:13.515Z,7.53
